Aérodrome :
LOGIN :

S'inscrire | Disclaimer

   EN    FR    IT 

 










Légende :    VFR   VFR Marginal   IFR   IFR Intensif   IFR Très Intensif
Visi : 
Plafond : 
>= 8 km
>= 3000ft
5 à 8 km
1000 à 3000 ft
1500m à 5 km
500 à 1000 ft
800 à 1500m
200 à 500 ft
< 800m
< 200 ft
Symboles :   Orages  Brouillard  Fortes neiges  Fortes précipitations  Vent > 20 kt
SIGMETs :   Divers  Orages  Givrage  Turbulence  Onde Orograph.  Cendres Volcan.






- Altitude de l'aérodrome : 32 ft
- Code IATA : LKZ


EGUL - RAF Lakenheath

DERNIER METAR :
  • 191556Z AUTO 19008KT 9999 -RA BKN015 BKN041 06/05 A3000 RMK AO2 CIG 015V040 BKN015 V SCT SLP163 P0000 T00600046 $

METARs EXPIRÉS :
  • 191546Z AUTO 19008KT 9999 -RA SCT013 SCT018 BKN040 06/05 A3001 RMK AO2 SLP166 $
  • 191456Z AUTO 20008KT 9999 -RA BKN021 OVC028 06/04 A3003 RMK AO2 RAB1359 SLP173 P0000 60000 T00590041 57021 $
  • 191429Z AUTO 21009KT 9999 -RA SCT021 OVC029 06/04 A3005 RMK AO2 RAB1359 CIG 016V031 SLP180 $
  • 191424Z AUTO 22011KT 9999 -RA SCT018 OVC031 06/04 A3005 RMK AO2 RAB1359 SLP180 $
  • 191409Z AUTO 24015KT 9999 -RA BKN012 06/03 A3006 RMK AO2 RAB1359 BKN V FEW SLP183 $
  • 191350Z AUTO 25013KT 9999 CLR 06/03 A3007 RMK AO2 DZB10E19DZB29E36RAB36E50 SLP187 $
  • 191329Z AUTO 26018G22KT 9999 -DZ BKN025 07/01 A3008 RMK AO2 DZB10E19DZB29 SLP190 $
  • 191310Z AUTO 25016KT 9999 -DZ BKN026 OVC095 07/02 A3008 RMK AO2 DZB10 CIG 026V100 SLP190 $

TAF AMD TAF EGUL
Valide du 19 à 15h jusqu'au 20 à 19h UTC


191545Z 1915/2019 21010G20KT 8000 -RA SCT012 BKN025 QNH2985INS
TEMPO 1915/1918 BKN012
TEMPO 1918/1922 6000 -RA BKN009 OVC012
BECMG 2000/2001 22020G30KT 9999 NSW OVC015 510002 QNH2970INS
BECMG 2010/2011 21025G35KT 8000 -SHRA OVC013 510002 QNH2967INS
BECMG 2013/2014 24025G35KT 6000 -SHRA OVC010 510002 QNH2965INS
BECMG 2014/2015 29025G35KT 6000 -SHRA OVC012 510002 QNH2968INS
BECMG 2016/2017 28015G25KT 9999 NSW SCT015 BKN025 QNH2979INS
TEMPO 2017/2018 9000 -SHRA TX11/2012Z TN04/2019Z



MET'MAP, la Météo Aéronautique d'un coup d'oeil ! - Copyright ORBIFLY Décembre 2007 - Disclaimer

ORBIFLY MET'MAP TEAM :

Programmation & Développement : Alexandra Zaïnal
Sur une idée originale de : Baudouin d'Aumeries
Assistance à la programmation : Marc-Olivier Méhu
Soutien technique & logistique : Manuel Goepfert

Contact : metmap@orbifly.com




SOURCES & CREDITS :

   NOAA